sensor_id;sensor_type;location;lat;lon;timestamp;P1;durP1;ratioP1;P2;durP2;ratioP2
21122;SDS011;10719;48.130;11.630;2023-07-13T00:01:52;3.95;;;1.85;;
21122;SDS011;10719;48.130;11.630;2023-07-13T00:04:19;7.43;;;2.38;;
21122;SDS011;10719;48.130;11.630;2023-07-13T00:06:46;4.82;;;1.90;;
21122;SDS011;10719;48.130;11.630;2023-07-13T00:09:12;10.55;;;2.40;;
21122;SDS011;10719;48.130;11.630;2023-07-13T00:11:40;5.93;;;2.47;;
21122;SDS011;10719;48.130;11.630;2023-07-13T00:14:06;4.60;;;1.90;;
21122;SDS011;10719;48.130;11.630;2023-07-13T00:16:33;4.57;;;2.10;;
21122;SDS011;10719;48.130;11.630;2023-07-13T00:18:59;6.20;;;2.28;;
21122;SDS011;10719;48.130;11.630;2023-07-13T00:21:26;4.60;;;2.10;;
21122;SDS011;10719;48.130;11.630;2023-07-13T00:23:52;5.57;;;2.25;;
21122;SDS011;10719;48.130;11.630;2023-07-13T00:26:17;5.65;;;2.08;;
21122;SDS011;10719;48.130;11.630;2023-07-13T00:28:43;5.50;;;2.15;;
21122;SDS011;10719;48.130;11.630;2023-07-13T00:31:09;5.40;;;2.20;;
21122;SDS011;10719;48.130;11.630;2023-07-13T00:33:37;10.10;;;2.60;;
21122;SDS011;10719;48.130;11.630;2023-07-13T00:36:03;5.22;;;2.17;;
21122;SDS011;10719;48.130;11.630;2023-07-13T00:38:29;3.58;;;2.00;;
21122;SDS011;10719;48.130;11.630;2023-07-13T00:40:54;5.97;;;2.38;;
21122;SDS011;10719;48.130;11.630;2023-07-13T00:43:21;4.65;;;1.92;;
21122;SDS011;10719;48.130;11.630;2023-07-13T00:48:24;3.50;;;1.35;;
21122;SDS011;10719;48.130;11.630;2023-07-13T00:50:53;5.03;;;1.80;;
21122;SDS011;10719;48.130;11.630;2023-07-13T00:53:23;5.05;;;2.08;;
21122;SDS011;10719;48.130;11.630;2023-07-13T00:55:53;4.97;;;1.77;;
21122;SDS011;10719;48.130;11.630;2023-07-13T00:58:21;9.02;;;2.03;;
21122;SDS011;10719;48.130;11.630;2023-07-13T01:00:47;5.05;;;2.00;;
21122;SDS011;10719;48.130;11.630;2023-07-13T01:03:14;4.15;;;1.80;;
21122;SDS011;10719;48.130;11.630;2023-07-13T01:05:40;5.40;;;1.80;;
21122;SDS011;10719;48.130;11.630;2023-07-13T01:08:06;5.57;;;1.80;;
21122;SDS011;10719;48.130;11.630;2023-07-13T01:10:31;5.43;;;2.00;;
21122;SDS011;10719;48.130;11.630;2023-07-13T01:13:07;6.10;;;1.95;;
21122;SDS011;10719;48.130;11.630;2023-07-13T01:18:09;5.65;;;1.77;;
21122;SDS011;10719;48.130;11.630;2023-07-13T01:20:38;5.53;;;2.15;;
21122;SDS011;10719;48.130;11.630;2023-07-13T01:23:08;2.88;;;1.80;;
21122;SDS011;10719;48.130;11.630;2023-07-13T01:25:35;7.88;;;2.10;;
21122;SDS011;10719;48.130;11.630;2023-07-13T01:28:05;5.82;;;2.25;;
21122;SDS011;10719;48.130;11.630;2023-07-13T01:30:33;5.55;;;2.00;;
21122;SDS011;10719;48.130;11.630;2023-07-13T01:33:00;5.13;;;2.22;;
21122;SDS011;10719;48.130;11.630;2023-07-13T01:35:26;7.03;;;2.15;;
21122;SDS011;10719;48.130;11.630;2023-07-13T01:37:52;8.20;;;2.17;;
21122;SDS011;10719;48.130;11.630;2023-07-13T01:40:18;4.15;;;1.90;;
21122;SDS011;10719;48.130;11.630;2023-07-13T01:42:45;6.30;;;2.47;;
21122;SDS011;10719;48.130;11.630;2023-07-13T01:45:10;5.88;;;2.20;;
21122;SDS011;10719;48.130;11.630;2023-07-13T01:47:36;6.00;;;2.08;;
21122;SDS011;10719;48.130;11.630;2023-07-13T01:50:02;3.70;;;1.90;;
21122;SDS011;10719;48.130;11.630;2023-07-13T01:52:27;3.67;;;1.77;;
21122;SDS011;10719;48.130;11.630;2023-07-13T01:54:53;2.78;;;1.30;;
21122;SDS011;10719;48.130;11.630;2023-07-13T01:57:19;7.32;;;2.53;;
21122;SDS011;10719;48.130;11.630;2023-07-13T01:59:44;3.72;;;1.70;;
21122;SDS011;10719;48.130;11.630;2023-07-13T02:02:10;4.97;;;1.85;;
21122;SDS011;10719;48.130;11.630;2023-07-13T02:04:35;5.15;;;2.00;;
21122;SDS011;10719;48.130;11.630;2023-07-13T02:07:01;4.15;;;2.00;;
21122;SDS011;10719;48.130;11.630;2023-07-13T02:09:27;5.60;;;2.00;;
21122;SDS011;10719;48.130;11.630;2023-07-13T02:11:53;5.03;;;2.08;;
21122;SDS011;10719;48.130;11.630;2023-07-13T02:14:18;6.85;;;2.00;;
21122;SDS011;10719;48.130;11.630;2023-07-13T02:16:44;4.18;;;1.90;;
21122;SDS011;10719;48.130;11.630;2023-07-13T02:19:09;5.55;;;1.98;;
21122;SDS011;10719;48.130;11.630;2023-07-13T02:21:35;8.32;;;2.25;;
21122;SDS011;10719;48.130;11.630;2023-07-13T02:24:00;6.28;;;2.40;;
21122;SDS011;10719;48.130;11.630;2023-07-13T02:26:26;6.20;;;2.15;;
21122;SDS011;10719;48.130;11.630;2023-07-13T02:28:52;5.43;;;2.28;;
21122;SDS011;10719;48.130;11.630;2023-07-13T02:31:18;5.43;;;2.40;;
21122;SDS011;10719;48.130;11.630;2023-07-13T02:33:45;5.57;;;2.03;;
21122;SDS011;10719;48.130;11.630;2023-07-13T02:36:11;3.42;;;1.85;;
21122;SDS011;10719;48.130;11.630;2023-07-13T02:38:37;6.35;;;2.15;;
21122;SDS011;10719;48.130;11.630;2023-07-13T02:41:04;7.15;;;2.45;;
21122;SDS011;10719;48.130;11.630;2023-07-13T02:43:30;4.03;;;2.20;;
21122;SDS011;10719;48.130;11.630;2023-07-13T02:45:56;8.48;;;2.35;;
21122;SDS011;10719;48.130;11.630;2023-07-13T02:48:25;6.10;;;2.35;;
21122;SDS011;10719;48.130;11.630;2023-07-13T02:50:51;6.00;;;2.28;;
21122;SDS011;10719;48.130;11.630;2023-07-13T02:53:16;6.13;;;2.58;;
21122;SDS011;10719;48.130;11.630;2023-07-13T02:55:42;7.93;;;2.78;;
21122;SDS011;10719;48.130;11.630;2023-07-13T02:58:12;6.18;;;2.60;;
21122;SDS011;10719;48.130;11.630;2023-07-13T03:00:41;6.70;;;2.75;;
21122;SDS011;10719;48.130;11.630;2023-07-13T03:03:07;8.20;;;2.78;;
21122;SDS011;10719;48.130;11.630;2023-07-13T03:05:33;8.95;;;3.08;;
21122;SDS011;10719;48.130;11.630;2023-07-13T03:07:59;8.23;;;2.85;;
21122;SDS011;10719;48.130;11.630;2023-07-13T03:10:24;8.38;;;2.67;;
21122;SDS011;10719;48.130;11.630;2023-07-13T03:12:50;9.88;;;2.85;;
21122;SDS011;10719;48.130;11.630;2023-07-13T03:15:16;8.77;;;2.63;;
21122;SDS011;10719;48.130;11.630;2023-07-13T03:17:41;7.22;;;2.95;;
21122;SDS011;10719;48.130;11.630;2023-07-13T03:20:07;6.40;;;2.30;;
21122;SDS011;10719;48.130;11.630;2023-07-13T03:22:33;8.50;;;2.75;;
21122;SDS011;10719;48.130;11.630;2023-07-13T03:24:59;10.38;;;2.90;;
21122;SDS011;10719;48.130;11.630;2023-07-13T03:27:24;7.82;;;3.03;;
21122;SDS011;10719;48.130;11.630;2023-07-13T03:29:50;7.45;;;2.38;;
21122;SDS011;10719;48.130;11.630;2023-07-13T03:32:15;6.13;;;2.28;;
21122;SDS011;10719;48.130;11.630;2023-07-13T03:34:41;4.63;;;2.10;;
21122;SDS011;10719;48.130;11.630;2023-07-13T03:37:07;6.72;;;2.88;;
21122;SDS011;10719;48.130;11.630;2023-07-13T03:39:32;6.68;;;2.53;;
21122;SDS011;10719;48.130;11.630;2023-07-13T03:41:58;6.47;;;2.47;;
21122;SDS011;10719;48.130;11.630;2023-07-13T03:44:23;6.25;;;2.65;;
21122;SDS011;10719;48.130;11.630;2023-07-13T03:46:49;5.20;;;2.20;;
21122;SDS011;10719;48.130;11.630;2023-07-13T03:49:15;7.00;;;2.38;;
21122;SDS011;10719;48.130;11.630;2023-07-13T03:51:41;6.88;;;2.50;;
21122;SDS011;10719;48.130;11.630;2023-07-13T03:54:06;7.18;;;2.53;;
21122;SDS011;10719;48.130;11.630;2023-07-13T03:56:32;5.63;;;2.28;;
21122;SDS011;10719;48.130;11.630;2023-07-13T03:58:58;5.82;;;2.58;;
21122;SDS011;10719;48.130;11.630;2023-07-13T04:01:24;7.05;;;2.33;;
21122;SDS011;10719;48.130;11.630;2023-07-13T04:03:50;7.00;;;2.42;;
21122;SDS011;10719;48.130;11.630;2023-07-13T04:06:17;5.18;;;2.35;;
21122;SDS011;10719;48.130;11.630;2023-07-13T04:08:56;7.80;;;2.85;;
21122;SDS011;10719;48.130;11.630;2023-07-13T04:11:23;6.28;;;2.53;;
21122;SDS011;10719;48.130;11.630;2023-07-13T04:13:51;10.00;;;2.85;;
21122;SDS011;10719;48.130;11.630;2023-07-13T04:16:18;5.53;;;2.53;;
21122;SDS011;10719;48.130;11.630;2023-07-13T04:18:44;6.95;;;2.60;;
21122;SDS011;10719;48.130;11.630;2023-07-13T04:21:10;10.55;;;3.30;;
21122;SDS011;10719;48.130;11.630;2023-07-13T04:23:37;6.25;;;2.92;;
21122;SDS011;10719;48.130;11.630;2023-07-13T04:26:03;7.75;;;2.80;;
21122;SDS011;10719;48.130;11.630;2023-07-13T04:28:29;5.75;;;2.40;;
21122;SDS011;10719;48.130;11.630;2023-07-13T04:30:55;7.47;;;2.50;;
21122;SDS011;10719;48.130;11.630;2023-07-13T04:33:21;11.52;;;2.65;;
21122;SDS011;10719;48.130;11.630;2023-07-13T04:35:48;10.48;;;3.00;;
21122;SDS011;10719;48.130;11.630;2023-07-13T04:38:19;5.78;;;2.33;;
21122;SDS011;10719;48.130;11.630;2023-07-13T04:40:45;10.43;;;2.63;;
21122;SDS011;10719;48.130;11.630;2023-07-13T04:43:11;10.60;;;2.95;;
21122;SDS011;10719;48.130;11.630;2023-07-13T04:45:36;8.68;;;2.33;;
21122;SDS011;10719;48.130;11.630;2023-07-13T04:48:02;8.80;;;2.53;;
21122;SDS011;10719;48.130;11.630;2023-07-13T04:50:28;5.72;;;2.80;;
21122;SDS011;10719;48.130;11.630;2023-07-13T04:52:54;6.18;;;2.63;;
21122;SDS011;10719;48.130;11.630;2023-07-13T04:55:19;7.70;;;2.40;;
21122;SDS011;10719;48.130;11.630;2023-07-13T04:57:45;7.28;;;2.60;;
21122;SDS011;10719;48.130;11.630;2023-07-13T05:00:12;10.98;;;2.70;;
21122;SDS011;10719;48.130;11.630;2023-07-13T05:02:39;8.88;;;2.35;;
21122;SDS011;10719;48.130;11.630;2023-07-13T05:05:05;5.53;;;1.83;;
21122;SDS011;10719;48.130;11.630;2023-07-13T05:07:31;7.28;;;2.47;;
21122;SDS011;10719;48.130;11.630;2023-07-13T05:09:58;7.30;;;2.33;;
21122;SDS011;10719;48.130;11.630;2023-07-13T05:12:25;6.88;;;2.30;;
21122;SDS011;10719;48.130;11.630;2023-07-13T05:14:51;8.77;;;2.28;;
21122;SDS011;10719;48.130;11.630;2023-07-13T05:17:16;7.95;;;2.22;;
21122;SDS011;10719;48.130;11.630;2023-07-13T05:19:43;6.03;;;2.15;;
21122;SDS011;10719;48.130;11.630;2023-07-13T05:22:08;3.13;;;1.70;;
21122;SDS011;10719;48.130;11.630;2023-07-13T05:24:34;5.15;;;2.38;;
21122;SDS011;10719;48.130;11.630;2023-07-13T05:26:59;5.90;;;2.10;;
21122;SDS011;10719;48.130;11.630;2023-07-13T05:29:25;6.53;;;2.38;;
21122;SDS011;10719;48.130;11.630;2023-07-13T05:31:51;5.82;;;2.30;;
21122;SDS011;10719;48.130;11.630;2023-07-13T05:34:16;5.63;;;2.05;;
21122;SDS011;10719;48.130;11.630;2023-07-13T05:36:42;3.67;;;1.88;;
21122;SDS011;10719;48.130;11.630;2023-07-13T05:39:08;6.80;;;2.40;;
21122;SDS011;10719;48.130;11.630;2023-07-13T05:41:34;5.07;;;2.35;;
21122;SDS011;10719;48.130;11.630;2023-07-13T05:44:00;7.40;;;2.20;;
21122;SDS011;10719;48.130;11.630;2023-07-13T05:46:26;7.32;;;2.38;;
21122;SDS011;10719;48.130;11.630;2023-07-13T05:48:53;5.50;;;2.20;;
21122;SDS011;10719;48.130;11.630;2023-07-13T05:51:19;6.07;;;2.60;;
21122;SDS011;10719;48.130;11.630;2023-07-13T05:53:44;8.48;;;2.33;;
21122;SDS011;10719;48.130;11.630;2023-07-13T05:56:10;4.57;;;2.03;;
21122;SDS011;10719;48.130;11.630;2023-07-13T05:58:36;6.30;;;2.67;;
21122;SDS011;10719;48.130;11.630;2023-07-13T06:01:04;5.47;;;1.95;;
21122;SDS011;10719;48.130;11.630;2023-07-13T06:03:31;10.18;;;2.55;;
21122;SDS011;10719;48.130;11.630;2023-07-13T06:05:57;8.18;;;2.28;;
21122;SDS011;10719;48.130;11.630;2023-07-13T06:08:25;5.53;;;2.33;;
21122;SDS011;10719;48.130;11.630;2023-07-13T06:10:51;6.30;;;2.40;;
21122;SDS011;10719;48.130;11.630;2023-07-13T06:13:17;6.57;;;2.08;;
21122;SDS011;10719;48.130;11.630;2023-07-13T06:15:47;7.88;;;2.17;;
21122;SDS011;10719;48.130;11.630;2023-07-13T06:18:15;6.60;;;2.10;;
21122;SDS011;10719;48.130;11.630;2023-07-13T06:20:41;5.38;;;2.40;;
21122;SDS011;10719;48.130;11.630;2023-07-13T06:23:06;6.85;;;2.05;;
21122;SDS011;10719;48.130;11.630;2023-07-13T06:25:32;12.13;;;2.38;;
21122;SDS011;10719;48.130;11.630;2023-07-13T06:27:58;7.72;;;3.30;;
21122;SDS011;10719;48.130;11.630;2023-07-13T06:30:23;7.72;;;1.98;;
21122;SDS011;10719;48.130;11.630;2023-07-13T06:32:49;5.88;;;2.15;;
21122;SDS011;10719;48.130;11.630;2023-07-13T06:35:15;5.25;;;2.28;;
21122;SDS011;10719;48.130;11.630;2023-07-13T06:37:40;5.75;;;2.17;;
21122;SDS011;10719;48.130;11.630;2023-07-13T06:40:06;6.22;;;2.15;;
21122;SDS011;10719;48.130;11.630;2023-07-13T06:42:32;5.63;;;2.20;;
21122;SDS011;10719;48.130;11.630;2023-07-13T06:44:58;6.05;;;2.20;;
21122;SDS011;10719;48.130;11.630;2023-07-13T06:47:23;5.22;;;1.92;;
21122;SDS011;10719;48.130;11.630;2023-07-13T06:49:49;4.75;;;1.70;;
21122;SDS011;10719;48.130;11.630;2023-07-13T06:52:14;5.60;;;2.20;;
21122;SDS011;10719;48.130;11.630;2023-07-13T06:54:40;5.22;;;1.95;;
21122;SDS011;10719;48.130;11.630;2023-07-13T06:57:06;6.95;;;2.28;;
21122;SDS011;10719;48.130;11.630;2023-07-13T06:59:32;6.15;;;2.10;;
21122;SDS011;10719;48.130;11.630;2023-07-13T07:01:57;6.60;;;1.90;;
21122;SDS011;10719;48.130;11.630;2023-07-13T07:04:23;5.35;;;1.88;;
21122;SDS011;10719;48.130;11.630;2023-07-13T07:06:49;5.50;;;2.20;;
21122;SDS011;10719;48.130;11.630;2023-07-13T07:09:14;4.70;;;1.92;;
21122;SDS011;10719;48.130;11.630;2023-07-13T07:11:41;9.50;;;2.67;;
21122;SDS011;10719;48.130;11.630;2023-07-13T07:14:07;5.43;;;2.30;;
21122;SDS011;10719;48.130;11.630;2023-07-13T07:16:33;7.07;;;2.28;;
21122;SDS011;10719;48.130;11.630;2023-07-13T07:18:59;5.97;;;2.10;;
21122;SDS011;10719;48.130;11.630;2023-07-13T07:21:24;4.05;;;1.70;;
21122;SDS011;10719;48.130;11.630;2023-07-13T07:23:51;5.97;;;2.00;;
21122;SDS011;10719;48.130;11.630;2023-07-13T07:26:17;7.20;;;1.98;;
21122;SDS011;10719;48.130;11.630;2023-07-13T07:28:42;5.72;;;1.83;;
21122;SDS011;10719;48.130;11.630;2023-07-13T07:31:08;4.97;;;2.00;;
21122;SDS011;10719;48.130;11.630;2023-07-13T07:33:34;4.10;;;1.65;;
21122;SDS011;10719;48.130;11.630;2023-07-13T07:36:00;7.55;;;1.80;;
21122;SDS011;10719;48.130;11.630;2023-07-13T07:38:26;4.10;;;1.38;;
21122;SDS011;10719;48.130;11.630;2023-07-13T07:40:52;3.85;;;1.48;;
21122;SDS011;10719;48.130;11.630;2023-07-13T07:43:18;4.85;;;1.70;;
21122;SDS011;10719;48.130;11.630;2023-07-13T07:45:44;5.60;;;1.95;;
21122;SDS011;10719;48.130;11.630;2023-07-13T07:48:10;5.55;;;1.63;;
21122;SDS011;10719;48.130;11.630;2023-07-13T07:50:37;7.57;;;2.03;;
21122;SDS011;10719;48.130;11.630;2023-07-13T07:53:04;4.13;;;2.00;;
21122;SDS011;10719;48.130;11.630;2023-07-13T07:55:32;6.85;;;2.42;;
21122;SDS011;10719;48.130;11.630;2023-07-13T07:58:00;9.20;;;2.47;;
21122;SDS011;10719;48.130;11.630;2023-07-13T08:00:26;5.63;;;2.00;;
21122;SDS011;10719;48.130;11.630;2023-07-13T08:02:54;5.47;;;1.85;;
21122;SDS011;10719;48.130;11.630;2023-07-13T08:05:19;8.95;;;1.65;;
21122;SDS011;10719;48.130;11.630;2023-07-13T08:07:45;4.15;;;1.77;;
21122;SDS011;10719;48.130;11.630;2023-07-13T08:10:11;3.72;;;1.58;;
21122;SDS011;10719;48.130;11.630;2023-07-13T08:12:37;6.25;;;2.00;;
21122;SDS011;10719;48.130;11.630;2023-07-13T08:15:03;2.72;;;1.23;;
21122;SDS011;10719;48.130;11.630;2023-07-13T08:17:31;7.05;;;2.08;;
21122;SDS011;10719;48.130;11.630;2023-07-13T08:19:56;4.00;;;1.52;;
21122;SDS011;10719;48.130;11.630;2023-07-13T08:22:22;8.43;;;1.90;;
21122;SDS011;10719;48.130;11.630;2023-07-13T08:24:48;7.15;;;1.80;;
21122;SDS011;10719;48.130;11.630;2023-07-13T08:27:20;4.68;;;1.50;;
21122;SDS011;10719;48.130;11.630;2023-07-13T08:29:47;6.65;;;1.90;;
21122;SDS011;10719;48.130;11.630;2023-07-13T08:32:14;5.75;;;2.00;;
21122;SDS011;10719;48.130;11.630;2023-07-13T08:34:39;7.28;;;1.70;;
21122;SDS011;10719;48.130;11.630;2023-07-13T08:37:06;5.65;;;1.80;;
21122;SDS011;10719;48.130;11.630;2023-07-13T08:39:32;5.70;;;1.85;;
21122;SDS011;10719;48.130;11.630;2023-07-13T08:42:32;6.80;;;1.60;;
21122;SDS011;10719;48.130;11.630;2023-07-13T08:45:13;5.93;;;1.30;;
21122;SDS011;10719;48.130;11.630;2023-07-13T08:47:40;4.88;;;2.05;;
21122;SDS011;10719;48.130;11.630;2023-07-13T08:50:15;3.05;;;1.38;;
21122;SDS011;10719;48.130;11.630;2023-07-13T08:52:44;5.10;;;1.60;;
21122;SDS011;10719;48.130;11.630;2023-07-13T08:55:21;8.93;;;1.50;;
21122;SDS011;10719;48.130;11.630;2023-07-13T08:57:56;3.42;;;1.70;;
21122;SDS011;10719;48.130;11.630;2023-07-13T09:00:32;5.72;;;1.88;;
21122;SDS011;10719;48.130;11.630;2023-07-13T09:03:03;4.30;;;1.40;;
21122;SDS011;10719;48.130;11.630;2023-07-13T09:05:38;4.50;;;1.70;;
21122;SDS011;10719;48.130;11.630;2023-07-13T09:10:52;3.67;;;1.67;;
21122;SDS011;10719;48.130;11.630;2023-07-13T09:16:21;5.35;;;1.58;;
21122;SDS011;10719;48.130;11.630;2023-07-13T09:18:48;3.05;;;1.05;;
21122;SDS011;10719;48.130;11.630;2023-07-13T09:21:28;2.65;;;1.42;;
21122;SDS011;10719;48.130;11.630;2023-07-13T09:23:59;7.18;;;1.67;;
21122;SDS011;10719;48.130;11.630;2023-07-13T09:26:42;3.75;;;1.27;;
21122;SDS011;10719;48.130;11.630;2023-07-13T09:29:14;1.63;;;1.02;;
21122;SDS011;10719;48.130;11.630;2023-07-13T09:31:47;3.30;;;1.50;;
21122;SDS011;10719;48.130;11.630;2023-07-13T09:34:18;8.43;;;2.17;;
21122;SDS011;10719;48.130;11.630;2023-07-13T09:36:43;4.65;;;1.90;;
21122;SDS011;10719;48.130;11.630;2023-07-13T09:44:56;3.25;;;1.20;;
21122;SDS011;10719;48.130;11.630;2023-07-13T09:47:25;5.03;;;1.33;;
21122;SDS011;10719;48.130;11.630;2023-07-13T09:49:55;4.88;;;1.15;;
21122;SDS011;10719;48.130;11.630;2023-07-13T09:52:23;3.83;;;1.05;;
21122;SDS011;10719;48.130;11.630;2023-07-13T09:54:49;4.35;;;1.20;;
21122;SDS011;10719;48.130;11.630;2023-07-13T09:57:18;6.68;;;1.60;;
21122;SDS011;10719;48.130;11.630;2023-07-13T09:59:48;3.90;;;1.23;;
21122;SDS011;10719;48.130;11.630;2023-07-13T10:02:23;2.17;;;1.08;;
21122;SDS011;10719;48.130;11.630;2023-07-13T10:07:29;1.83;;;1.00;;
21122;SDS011;10719;48.130;11.630;2023-07-13T10:09:56;3.53;;;1.50;;
21122;SDS011;10719;48.130;11.630;2023-07-13T10:12:25;2.78;;;1.15;;
21122;SDS011;10719;48.130;11.630;2023-07-13T10:14:54;3.90;;;0.80;;
21122;SDS011;10719;48.130;11.630;2023-07-13T10:17:25;6.97;;;1.60;;
21122;SDS011;10719;48.130;11.630;2023-07-13T10:19:58;3.72;;;1.10;;
21122;SDS011;10719;48.130;11.630;2023-07-13T10:22:29;4.38;;;1.25;;
21122;SDS011;10719;48.130;11.630;2023-07-13T10:25:16;1.77;;;1.08;;
21122;SDS011;10719;48.130;11.630;2023-07-13T10:27:44;1.77;;;0.80;;
21122;SDS011;10719;48.130;11.630;2023-07-13T10:30:21;1.88;;;0.80;;
21122;SDS011;10719;48.130;11.630;2023-07-13T10:32:54;2.47;;;1.25;;
21122;SDS011;10719;48.130;11.630;2023-07-13T10:35:23;3.38;;;0.90;;
21122;SDS011;10719;48.130;11.630;2023-07-13T10:37:55;4.85;;;1.30;;
21122;SDS011;10719;48.130;11.630;2023-07-13T10:40:23;2.03;;;1.08;;
21122;SDS011;10719;48.130;11.630;2023-07-13T10:43:04;2.05;;;0.88;;
21122;SDS011;10719;48.130;11.630;2023-07-13T10:45:38;2.10;;;1.00;;
21122;SDS011;10719;48.130;11.630;2023-07-13T10:48:05;3.33;;;0.90;;
21122;SDS011;10719;48.130;11.630;2023-07-13T10:50:35;3.25;;;0.95;;
21122;SDS011;10719;48.130;11.630;2023-07-13T10:53:19;1.42;;;0.93;;
21122;SDS011;10719;48.130;11.630;2023-07-13T10:58:20;3.35;;;1.20;;
21122;SDS011;10719;48.130;11.630;2023-07-13T11:03:31;3.08;;;1.10;;
21122;SDS011;10719;48.130;11.630;2023-07-13T11:08:54;2.63;;;1.25;;
21122;SDS011;10719;48.130;11.630;2023-07-13T11:18:48;4.95;;;1.17;;
21122;SDS011;10719;48.130;11.630;2023-07-13T11:21:14;6.68;;;1.63;;
21122;SDS011;10719;48.130;11.630;2023-07-13T11:23:42;2.45;;;0.93;;
21122;SDS011;10719;48.130;11.630;2023-07-13T11:29:07;2.97;;;1.20;;
21122;SDS011;10719;48.130;11.630;2023-07-13T11:31:39;2.30;;;1.20;;
21122;SDS011;10719;48.130;11.630;2023-07-13T11:34:06;4.43;;;1.30;;
21122;SDS011;10719;48.130;11.630;2023-07-13T11:36:42;8.98;;;1.50;;
21122;SDS011;10719;48.130;11.630;2023-07-13T11:39:17;2.13;;;1.02;;
21122;SDS011;10719;48.130;11.630;2023-07-13T11:41:50;4.45;;;1.20;;
21122;SDS011;10719;48.130;11.630;2023-07-13T11:44:21;4.53;;;1.17;;
21122;SDS011;10719;48.130;11.630;2023-07-13T11:46:55;3.03;;;1.27;;
21122;SDS011;10719;48.130;11.630;2023-07-13T11:49:22;4.03;;;1.33;;
21122;SDS011;10719;48.130;11.630;2023-07-13T11:51:49;3.65;;;1.35;;
21122;SDS011;10719;48.130;11.630;2023-07-13T11:56:44;3.03;;;1.60;;
21122;SDS011;10719;48.130;11.630;2023-07-13T11:59:11;4.30;;;1.27;;
21122;SDS011;10719;48.130;11.630;2023-07-13T12:01:42;2.45;;;1.10;;
21122;SDS011;10719;48.130;11.630;2023-07-13T12:04:18;3.28;;;1.30;;
21122;SDS011;10719;48.130;11.630;2023-07-13T12:06:47;3.65;;;1.63;;
21122;SDS011;10719;48.130;11.630;2023-07-13T12:09:25;1.48;;;0.90;;
21122;SDS011;10719;48.130;11.630;2023-07-13T12:11:52;4.47;;;1.48;;
21122;SDS011;10719;48.130;11.630;2023-07-13T12:14:18;4.57;;;1.10;;
21122;SDS011;10719;48.130;11.630;2023-07-13T12:16:45;6.20;;;1.50;;
21122;SDS011;10719;48.130;11.630;2023-07-13T12:19:21;4.43;;;1.67;;
21122;SDS011;10719;48.130;11.630;2023-07-13T12:21:53;4.63;;;1.05;;
21122;SDS011;10719;48.130;11.630;2023-07-13T12:24:21;5.22;;;1.30;;
21122;SDS011;10719;48.130;11.630;2023-07-13T12:26:58;7.80;;;1.50;;
21122;SDS011;10719;48.130;11.630;2023-07-13T12:29:26;4.70;;;1.30;;
21122;SDS011;10719;48.130;11.630;2023-07-13T12:31:52;3.75;;;1.60;;
21122;SDS011;10719;48.130;11.630;2023-07-13T12:34:18;3.13;;;1.10;;
21122;SDS011;10719;48.130;11.630;2023-07-13T12:36:48;2.28;;;1.17;;
21122;SDS011;10719;48.130;11.630;2023-07-13T12:42:27;7.55;;;1.70;;
21122;SDS011;10719;48.130;11.630;2023-07-13T12:45:01;2.90;;;1.30;;
21122;SDS011;10719;48.130;11.630;2023-07-13T12:47:41;4.03;;;0.98;;
21122;SDS011;10719;48.130;11.630;2023-07-13T12:50:12;3.47;;;1.20;;
21122;SDS011;10719;48.130;11.630;2023-07-13T12:52:44;6.18;;;1.67;;
21122;SDS011;10719;48.130;11.630;2023-07-13T12:55:18;4.15;;;1.25;;
21122;SDS011;10719;48.130;11.630;2023-07-13T12:57:55;4.93;;;1.45;;
21122;SDS011;10719;48.130;11.630;2023-07-13T13:00:30;5.10;;;1.35;;
21122;SDS011;10719;48.130;11.630;2023-07-13T13:06:17;2.92;;;0.93;;
21122;SDS011;10719;48.130;11.630;2023-07-13T13:08:49;6.13;;;1.55;;
21122;SDS011;10719;48.130;11.630;2023-07-13T13:11:17;4.68;;;1.40;;
21122;SDS011;10719;48.130;11.630;2023-07-13T13:13:44;2.55;;;1.17;;
21122;SDS011;10719;48.130;11.630;2023-07-13T13:18:56;3.45;;;1.27;;
21122;SDS011;10719;48.130;11.630;2023-07-13T13:21:24;3.40;;;1.20;;
21122;SDS011;10719;48.130;11.630;2023-07-13T13:23:51;2.88;;;1.30;;
21122;SDS011;10719;48.130;11.630;2023-07-13T13:26:18;2.60;;;1.30;;
21122;SDS011;10719;48.130;11.630;2023-07-13T13:28:45;3.05;;;1.10;;
21122;SDS011;10719;48.130;11.630;2023-07-13T13:31:12;1.55;;;0.90;;
21122;SDS011;10719;48.130;11.630;2023-07-13T13:33:39;3.22;;;1.30;;
21122;SDS011;10719;48.130;11.630;2023-07-13T13:36:17;2.00;;;1.00;;
21122;SDS011;10719;48.130;11.630;2023-07-13T13:38:45;1.63;;;0.98;;
21122;SDS011;10719;48.130;11.630;2023-07-13T13:41:11;3.70;;;1.30;;
21122;SDS011;10719;48.130;11.630;2023-07-13T13:43:39;5.78;;;1.10;;
21122;SDS011;10719;48.130;11.630;2023-07-13T13:46:16;3.22;;;1.00;;
21122;SDS011;10719;48.130;11.630;2023-07-13T13:48:43;7.00;;;1.30;;
21122;SDS011;10719;48.130;11.630;2023-07-13T13:51:14;3.80;;;1.27;;
21122;SDS011;10719;48.130;11.630;2023-07-13T13:53:44;4.60;;;1.00;;
21122;SDS011;10719;48.130;11.630;2023-07-13T13:56:11;3.63;;;1.15;;
21122;SDS011;10719;48.130;11.630;2023-07-13T13:58:38;3.55;;;1.27;;
21122;SDS011;10719;48.130;11.630;2023-07-13T14:01:03;1.65;;;1.10;;
21122;SDS011;10719;48.130;11.630;2023-07-13T14:03:33;2.40;;;1.02;;
21122;SDS011;10719;48.130;11.630;2023-07-13T14:05:59;1.50;;;1.10;;
21122;SDS011;10719;48.130;11.630;2023-07-13T14:08:25;3.63;;;1.35;;
21122;SDS011;10719;48.130;11.630;2023-07-13T14:10:51;4.13;;;1.40;;
21122;SDS011;10719;48.130;11.630;2023-07-13T14:13:27;3.25;;;1.23;;
21122;SDS011;10719;48.130;11.630;2023-07-13T14:15:57;2.45;;;1.13;;
21122;SDS011;10719;48.130;11.630;2023-07-13T14:18:24;1.80;;;1.00;;
21122;SDS011;10719;48.130;11.630;2023-07-13T14:20:50;6.22;;;1.20;;
21122;SDS011;10719;48.130;11.630;2023-07-13T14:23:17;2.22;;;1.15;;
21122;SDS011;10719;48.130;11.630;2023-07-13T14:25:43;3.22;;;1.08;;
21122;SDS011;10719;48.130;11.630;2023-07-13T14:28:23;3.25;;;1.08;;
21122;SDS011;10719;48.130;11.630;2023-07-13T14:30:51;3.03;;;1.23;;
21122;SDS011;10719;48.130;11.630;2023-07-13T14:33:18;4.45;;;1.30;;
21122;SDS011;10719;48.130;11.630;2023-07-13T14:35:43;3.22;;;1.20;;
21122;SDS011;10719;48.130;11.630;2023-07-13T14:38:16;3.95;;;1.23;;
21122;SDS011;10719;48.130;11.630;2023-07-13T14:40:43;5.78;;;1.60;;
21122;SDS011;10719;48.130;11.630;2023-07-13T14:43:10;3.33;;;1.23;;
21122;SDS011;10719;48.130;11.630;2023-07-13T14:45:41;2.67;;;1.20;;
21122;SDS011;10719;48.130;11.630;2023-07-13T14:48:13;4.05;;;1.13;;
21122;SDS011;10719;48.130;11.630;2023-07-13T14:50:55;1.55;;;1.00;;
21122;SDS011;10719;48.130;11.630;2023-07-13T14:53:22;2.22;;;1.08;;
21122;SDS011;10719;48.130;11.630;2023-07-13T14:55:50;3.05;;;0.88;;
21122;SDS011;10719;48.130;11.630;2023-07-13T14:58:16;2.10;;;1.10;;
21122;SDS011;10719;48.130;11.630;2023-07-13T15:00:41;3.10;;;1.10;;
21122;SDS011;10719;48.130;11.630;2023-07-13T15:03:13;2.28;;;1.23;;
21122;SDS011;10719;48.130;11.630;2023-07-13T15:05:46;2.22;;;1.08;;
21122;SDS011;10719;48.130;11.630;2023-07-13T15:08:13;2.00;;;0.77;;
21122;SDS011;10719;48.130;11.630;2023-07-13T15:10:39;3.10;;;1.08;;
21122;SDS011;10719;48.130;11.630;2023-07-13T15:13:18;3.65;;;1.20;;
21122;SDS011;10719;48.130;11.630;2023-07-13T15:15:46;2.70;;;1.08;;
21122;SDS011;10719;48.130;11.630;2023-07-13T15:18:15;4.47;;;1.05;;
21122;SDS011;10719;48.130;11.630;2023-07-13T15:20:44;2.88;;;1.05;;
21122;SDS011;10719;48.130;11.630;2023-07-13T15:23:11;5.25;;;1.20;;
21122;SDS011;10719;48.130;11.630;2023-07-13T15:25:38;2.03;;;1.00;;
21122;SDS011;10719;48.130;11.630;2023-07-13T15:28:05;2.67;;;1.20;;